sensor_id;sensor_type;location;lat;lon;timestamp;temperature;humidity
15700;DHT22;7950;42.744;23.174;2023-03-01T00:01:15;5.70;99.90
15700;DHT22;7950;42.744;23.174;2023-03-01T00:03:45;5.70;99.90
15700;DHT22;7950;42.744;23.174;2023-03-01T00:06:14;5.60;99.90
15700;DHT22;7950;42.744;23.174;2023-03-01T00:08:43;5.60;99.90
15700;DHT22;7950;42.744;23.174;2023-03-01T00:11:13;5.60;99.90
15700;DHT22;7950;42.744;23.174;2023-03-01T00:13:46;5.60;99.90
15700;DHT22;7950;42.744;23.174;2023-03-01T00:16:18;5.60;99.90
15700;DHT22;7950;42.744;23.174;2023-03-01T00:18:48;5.60;99.90
15700;DHT22;7950;42.744;23.174;2023-03-01T00:21:20;5.60;99.90
15700;DHT22;7950;42.744;23.174;2023-03-01T00:23:49;5.50;99.90
15700;DHT22;7950;42.744;23.174;2023-03-01T00:26:20;5.60;99.90
15700;DHT22;7950;42.744;23.174;2023-03-01T00:28:51;5.60;99.90
15700;DHT22;7950;42.744;23.174;2023-03-01T00:31:21;5.50;99.90
15700;DHT22;7950;42.744;23.174;2023-03-01T00:33:53;5.50;99.90
15700;DHT22;7950;42.744;23.174;2023-03-01T00:36:24;5.60;99.90
15700;DHT22;7950;42.744;23.174;2023-03-01T00:38:55;5.50;99.90
15700;DHT22;7950;42.744;23.174;2023-03-01T00:41:28;5.50;99.90
15700;DHT22;7950;42.744;23.174;2023-03-01T00:43:58;5.60;99.90
15700;DHT22;7950;42.744;23.174;2023-03-01T00:46:27;5.60;99.90
15700;DHT22;7950;42.744;23.174;2023-03-01T00:48:57;5.60;99.90
15700;DHT22;7950;42.744;23.174;2023-03-01T00:51:29;5.70;99.90
15700;DHT22;7950;42.744;23.174;2023-03-01T00:54:00;5.60;99.90
15700;DHT22;7950;42.744;23.174;2023-03-01T00:56:31;5.60;99.90
15700;DHT22;7950;42.744;23.174;2023-03-01T00:59:01;5.60;99.90
15700;DHT22;7950;42.744;23.174;2023-03-01T01:01:30;5.60;99.90
15700;DHT22;7950;42.744;23.174;2023-03-01T01:04:01;5.60;99.90
15700;DHT22;7950;42.744;23.174;2023-03-01T01:06:33;5.50;99.90
15700;DHT22;7950;42.744;23.174;2023-03-01T01:09:05;5.50;99.90
15700;DHT22;7950;42.744;23.174;2023-03-01T01:11:35;5.60;99.90
15700;DHT22;7950;42.744;23.174;2023-03-01T01:14:05;5.60;99.90
15700;DHT22;7950;42.744;23.174;2023-03-01T01:16:34;5.60;99.90
15700;DHT22;7950;42.744;23.174;2023-03-01T01:19:02;5.60;99.90
15700;DHT22;7950;42.744;23.174;2023-03-01T01:21:31;5.60;99.90
15700;DHT22;7950;42.744;23.174;2023-03-01T01:24:00;5.60;99.90
15700;DHT22;7950;42.744;23.174;2023-03-01T01:26:32;5.60;99.90
15700;DHT22;7950;42.744;23.174;2023-03-01T01:29:04;5.60;99.90
15700;DHT22;7950;42.744;23.174;2023-03-01T01:31:34;5.60;99.90
15700;DHT22;7950;42.744;23.174;2023-03-01T01:34:25;5.60;99.90
15700;DHT22;7950;42.744;23.174;2023-03-01T01:36:54;5.60;99.90
15700;DHT22;7950;42.744;23.174;2023-03-01T01:39:23;5.60;99.90
15700;DHT22;7950;42.744;23.174;2023-03-01T01:41:51;5.60;99.90
15700;DHT22;7950;42.744;23.174;2023-03-01T01:44:24;5.70;99.90
15700;DHT22;7950;42.744;23.174;2023-03-01T01:46:55;5.70;99.90
15700;DHT22;7950;42.744;23.174;2023-03-01T01:49:31;5.70;99.90
15700;DHT22;7950;42.744;23.174;2023-03-01T01:52:07;5.70;99.90
15700;DHT22;7950;42.744;23.174;2023-03-01T01:54:41;5.70;99.90
15700;DHT22;7950;42.744;23.174;2023-03-01T01:58:21;5.80;99.90
15700;DHT22;7950;42.744;23.174;2023-03-01T02:00:51;5.70;99.90
15700;DHT22;7950;42.744;23.174;2023-03-01T02:03:23;5.70;99.90
15700;DHT22;7950;42.744;23.174;2023-03-01T02:06:00;5.70;99.90
15700;DHT22;7950;42.744;23.174;2023-03-01T02:08:49;5.60;99.90
15700;DHT22;7950;42.744;23.174;2023-03-01T02:11:21;5.50;99.90
15700;DHT22;7950;42.744;23.174;2023-03-01T02:13:50;5.50;99.90
15700;DHT22;7950;42.744;23.174;2023-03-01T02:16:21;5.50;99.90
15700;DHT22;7950;42.744;23.174;2023-03-01T02:18:50;5.50;99.90
15700;DHT22;7950;42.744;23.174;2023-03-01T02:21:37;5.40;99.90
15700;DHT22;7950;42.744;23.174;2023-03-01T02:24:20;5.40;99.90
15700;DHT22;7950;42.744;23.174;2023-03-01T02:27:35;5.40;99.90
15700;DHT22;7950;42.744;23.174;2023-03-01T02:30:10;5.40;99.90
15700;DHT22;7950;42.744;23.174;2023-03-01T02:32:53;5.40;99.90
15700;DHT22;7950;42.744;23.174;2023-03-01T02:35:31;5.30;99.90
15700;DHT22;7950;42.744;23.174;2023-03-01T02:38:03;5.30;99.90
15700;DHT22;7950;42.744;23.174;2023-03-01T02:40:34;5.30;99.90
15700;DHT22;7950;42.744;23.174;2023-03-01T02:43:08;5.30;99.90
15700;DHT22;7950;42.744;23.174;2023-03-01T02:45:48;5.30;99.90
15700;DHT22;7950;42.744;23.174;2023-03-01T02:48:27;5.20;99.90
15700;DHT22;7950;42.744;23.174;2023-03-01T02:51:04;5.20;99.90
15700;DHT22;7950;42.744;23.174;2023-03-01T02:53:44;5.20;99.90
15700;DHT22;7950;42.744;23.174;2023-03-01T02:56:21;5.20;99.90
15700;DHT22;7950;42.744;23.174;2023-03-01T02:58:49;5.20;99.90
15700;DHT22;7950;42.744;23.174;2023-03-01T03:01:20;5.10;99.90
15700;DHT22;7950;42.744;23.174;2023-03-01T03:03:50;5.10;99.90
15700;DHT22;7950;42.744;23.174;2023-03-01T03:06:18;5.10;99.90
15700;DHT22;7950;42.744;23.174;2023-03-01T03:08:47;5.10;99.90
15700;DHT22;7950;42.744;23.174;2023-03-01T03:11:15;5.10;99.90
15700;DHT22;7950;42.744;23.174;2023-03-01T03:13:44;5.10;99.90
15700;DHT22;7950;42.744;23.174;2023-03-01T03:16:15;5.20;99.90
15700;DHT22;7950;42.744;23.174;2023-03-01T03:18:45;5.20;99.90
15700;DHT22;7950;42.744;23.174;2023-03-01T03:21:38;5.20;99.90
15700;DHT22;7950;42.744;23.174;2023-03-01T03:24:07;5.20;99.90
15700;DHT22;7950;42.744;23.174;2023-03-01T03:27:00;5.20;99.90
15700;DHT22;7950;42.744;23.174;2023-03-01T03:29:29;5.20;99.90
15700;DHT22;7950;42.744;23.174;2023-03-01T03:32:23;5.20;99.90
15700;DHT22;7950;42.744;23.174;2023-03-01T03:34:53;5.20;99.90
15700;DHT22;7950;42.744;23.174;2023-03-01T03:37:21;5.10;99.90
15700;DHT22;7950;42.744;23.174;2023-03-01T03:40:08;5.10;99.90
15700;DHT22;7950;42.744;23.174;2023-03-01T03:42:42;5.10;99.90
15700;DHT22;7950;42.744;23.174;2023-03-01T03:45:10;5.20;99.90
15700;DHT22;7950;42.744;23.174;2023-03-01T03:47:39;5.20;99.90
15700;DHT22;7950;42.744;23.174;2023-03-01T03:50:10;5.20;99.90
15700;DHT22;7950;42.744;23.174;2023-03-01T03:52:40;5.20;99.90
15700;DHT22;7950;42.744;23.174;2023-03-01T03:55:24;5.20;99.90
15700;DHT22;7950;42.744;23.174;2023-03-01T03:57:58;5.20;99.90
15700;DHT22;7950;42.744;23.174;2023-03-01T04:00:49;5.20;99.90
15700;DHT22;7950;42.744;23.174;2023-03-01T04:03:19;5.20;99.90
15700;DHT22;7950;42.744;23.174;2023-03-01T04:05:50;5.20;99.90
15700;DHT22;7950;42.744;23.174;2023-03-01T04:08:20;5.20;99.90
15700;DHT22;7950;42.744;23.174;2023-03-01T04:10:52;5.10;99.90
15700;DHT22;7950;42.744;23.174;2023-03-01T04:13:24;5.10;99.90
15700;DHT22;7950;42.744;23.174;2023-03-01T04:15:54;5.10;99.90
15700;DHT22;7950;42.744;23.174;2023-03-01T04:18:23;5.10;99.90
15700;DHT22;7950;42.744;23.174;2023-03-01T04:20:54;5.10;99.90
15700;DHT22;7950;42.744;23.174;2023-03-01T04:23:23;5.10;99.90
15700;DHT22;7950;42.744;23.174;2023-03-01T04:25:53;5.00;99.90
15700;DHT22;7950;42.744;23.174;2023-03-01T04:28:24;4.90;99.90
15700;DHT22;7950;42.744;23.174;2023-03-01T04:30:56;4.90;99.90
15700;DHT22;7950;42.744;23.174;2023-03-01T04:33:27;4.90;99.90
15700;DHT22;7950;42.744;23.174;2023-03-01T04:35:57;4.90;99.90
15700;DHT22;7950;42.744;23.174;2023-03-01T04:38:25;4.80;99.90
15700;DHT22;7950;42.744;23.174;2023-03-01T04:40:54;4.80;99.90
15700;DHT22;7950;42.744;23.174;2023-03-01T04:43:22;4.80;99.90
15700;DHT22;7950;42.744;23.174;2023-03-01T04:45:51;4.80;99.90
15700;DHT22;7950;42.744;23.174;2023-03-01T04:48:20;4.70;99.90
15700;DHT22;7950;42.744;23.174;2023-03-01T04:50:52;4.70;99.90
15700;DHT22;7950;42.744;23.174;2023-03-01T04:53:22;4.70;99.90
15700;DHT22;7950;42.744;23.174;2023-03-01T04:55:51;4.70;99.90
15700;DHT22;7950;42.744;23.174;2023-03-01T04:58:20;4.70;99.90
15700;DHT22;7950;42.744;23.174;2023-03-01T05:00:48;4.70;99.90
15700;DHT22;7950;42.744;23.174;2023-03-01T05:03:17;4.60;99.90
15700;DHT22;7950;42.744;23.174;2023-03-01T05:06:11;4.60;99.90
15700;DHT22;7950;42.744;23.174;2023-03-01T05:08:42;4.60;99.90
15700;DHT22;7950;42.744;23.174;2023-03-01T05:11:11;4.50;99.90
15700;DHT22;7950;42.744;23.174;2023-03-01T05:13:40;4.50;99.90
15700;DHT22;7950;42.744;23.174;2023-03-01T05:16:09;4.50;99.90
15700;DHT22;7950;42.744;23.174;2023-03-01T05:18:40;4.50;99.90
15700;DHT22;7950;42.744;23.174;2023-03-01T05:21:10;4.50;99.90
15700;DHT22;7950;42.744;23.174;2023-03-01T05:23:41;4.50;99.90
15700;DHT22;7950;42.744;23.174;2023-03-01T05:26:10;4.50;99.90
15700;DHT22;7950;42.744;23.174;2023-03-01T05:28:54;4.50;99.90
15700;DHT22;7950;42.744;23.174;2023-03-01T05:31:26;4.50;99.90
15700;DHT22;7950;42.744;23.174;2023-03-01T05:33:55;4.50;99.90
15700;DHT22;7950;42.744;23.174;2023-03-01T05:36:23;4.40;99.90
15700;DHT22;7950;42.744;23.174;2023-03-01T05:38:53;4.40;99.90
15700;DHT22;7950;42.744;23.174;2023-03-01T05:41:22;4.50;99.90
15700;DHT22;7950;42.744;23.174;2023-03-01T05:43:51;4.40;99.90
15700;DHT22;7950;42.744;23.174;2023-03-01T05:46:19;4.50;99.90
15700;DHT22;7950;42.744;23.174;2023-03-01T05:48:49;4.50;99.90
15700;DHT22;7950;42.744;23.174;2023-03-01T05:51:17;4.50;99.90
15700;DHT22;7950;42.744;23.174;2023-03-01T05:53:46;4.60;99.90
15700;DHT22;7950;42.744;23.174;2023-03-01T05:56:16;4.60;99.90
15700;DHT22;7950;42.744;23.174;2023-03-01T05:58:45;4.60;99.90
15700;DHT22;7950;42.744;23.174;2023-03-01T06:01:13;4.60;99.90
15700;DHT22;7950;42.744;23.174;2023-03-01T06:03:41;4.70;99.90
15700;DHT22;7950;42.744;23.174;2023-03-01T06:06:10;4.70;99.90
15700;DHT22;7950;42.744;23.174;2023-03-01T06:08:39;4.70;99.90
15700;DHT22;7950;42.744;23.174;2023-03-01T06:11:07;4.70;99.90
15700;DHT22;7950;42.744;23.174;2023-03-01T06:13:37;4.70;99.90
15700;DHT22;7950;42.744;23.174;2023-03-01T06:16:06;4.80;99.90
15700;DHT22;7950;42.744;23.174;2023-03-01T06:18:36;4.80;99.90
15700;DHT22;7950;42.744;23.174;2023-03-01T06:21:05;4.80;99.90
15700;DHT22;7950;42.744;23.174;2023-03-01T06:23:35;4.80;99.90
15700;DHT22;7950;42.744;23.174;2023-03-01T06:26:06;4.80;99.90
15700;DHT22;7950;42.744;23.174;2023-03-01T06:28:35;4.80;99.90
15700;DHT22;7950;42.744;23.174;2023-03-01T06:31:05;4.80;99.90
15700;DHT22;7950;42.744;23.174;2023-03-01T06:33:35;4.90;99.90
15700;DHT22;7950;42.744;23.174;2023-03-01T06:36:05;4.90;99.90
15700;DHT22;7950;42.744;23.174;2023-03-01T06:38:34;4.90;99.90
15700;DHT22;7950;42.744;23.174;2023-03-01T06:41:02;4.90;99.90
15700;DHT22;7950;42.744;23.174;2023-03-01T06:43:31;4.90;99.90
15700;DHT22;7950;42.744;23.174;2023-03-01T06:46:03;4.90;99.90
15700;DHT22;7950;42.744;23.174;2023-03-01T06:48:33;4.90;99.90
15700;DHT22;7950;42.744;23.174;2023-03-01T06:51:02;5.00;99.90
15700;DHT22;7950;42.744;23.174;2023-03-01T06:53:31;4.90;99.90
15700;DHT22;7950;42.744;23.174;2023-03-01T06:55:59;5.00;99.90
15700;DHT22;7950;42.744;23.174;2023-03-01T06:58:28;5.00;99.90
15700;DHT22;7950;42.744;23.174;2023-03-01T07:00:56;5.00;99.90
15700;DHT22;7950;42.744;23.174;2023-03-01T07:03:26;5.00;99.90
15700;DHT22;7950;42.744;23.174;2023-03-01T07:05:55;5.10;99.90
15700;DHT22;7950;42.744;23.174;2023-03-01T07:08:23;5.20;99.90
15700;DHT22;7950;42.744;23.174;2023-03-01T07:10:55;5.20;99.90
15700;DHT22;7950;42.744;23.174;2023-03-01T07:13:24;5.30;99.90
15700;DHT22;7950;42.744;23.174;2023-03-01T07:15:52;5.30;99.90
15700;DHT22;7950;42.744;23.174;2023-03-01T07:18:21;5.40;99.90
15700;DHT22;7950;42.744;23.174;2023-03-01T07:20:51;5.30;99.90
15700;DHT22;7950;42.744;23.174;2023-03-01T07:23:19;5.30;99.90
15700;DHT22;7950;42.744;23.174;2023-03-01T07:25:52;5.30;99.90
15700;DHT22;7950;42.744;23.174;2023-03-01T07:28:22;5.30;99.90
15700;DHT22;7950;42.744;23.174;2023-03-01T07:30:51;5.40;99.90
15700;DHT22;7950;42.744;23.174;2023-03-01T07:33:19;5.40;99.90
15700;DHT22;7950;42.744;23.174;2023-03-01T07:35:56;5.50;99.90
15700;DHT22;7950;42.744;23.174;2023-03-01T07:38:26;5.50;99.90
15700;DHT22;7950;42.744;23.174;2023-03-01T07:40:58;5.60;99.90
15700;DHT22;7950;42.744;23.174;2023-03-01T07:43:32;5.70;99.90
15700;DHT22;7950;42.744;23.174;2023-03-01T07:46:02;5.70;99.90
15700;DHT22;7950;42.744;23.174;2023-03-01T07:48:32;5.80;99.90
15700;DHT22;7950;42.744;23.174;2023-03-01T07:51:04;5.80;99.90
15700;DHT22;7950;42.744;23.174;2023-03-01T07:53:34;5.90;99.90
15700;DHT22;7950;42.744;23.174;2023-03-01T07:56:04;5.90;99.90
15700;DHT22;7950;42.744;23.174;2023-03-01T07:58:34;5.90;99.90
15700;DHT22;7950;42.744;23.174;2023-03-01T08:01:04;6.00;99.90
15700;DHT22;7950;42.744;23.174;2023-03-01T08:03:33;5.90;99.90
15700;DHT22;7950;42.744;23.174;2023-03-01T08:06:09;6.00;99.90
15700;DHT22;7950;42.744;23.174;2023-03-01T08:08:39;6.00;99.90
15700;DHT22;7950;42.744;23.174;2023-03-01T08:11:10;6.10;99.90
15700;DHT22;7950;42.744;23.174;2023-03-01T08:13:40;6.20;99.90
15700;DHT22;7950;42.744;23.174;2023-03-01T08:16:11;6.20;99.90
15700;DHT22;7950;42.744;23.174;2023-03-01T08:18:42;6.20;99.90
15700;DHT22;7950;42.744;23.174;2023-03-01T08:21:13;6.20;99.90
15700;DHT22;7950;42.744;23.174;2023-03-01T08:23:44;6.30;99.90
15700;DHT22;7950;42.744;23.174;2023-03-01T08:26:40;6.30;99.90
15700;DHT22;7950;42.744;23.174;2023-03-01T08:29:51;6.30;99.90
15700;DHT22;7950;42.744;23.174;2023-03-01T08:32:20;6.30;99.90
15700;DHT22;7950;42.744;23.174;2023-03-01T08:34:49;6.40;99.90
15700;DHT22;7950;42.744;23.174;2023-03-01T08:37:34;6.40;99.90
15700;DHT22;7950;42.744;23.174;2023-03-01T08:40:03;6.40;99.90
15700;DHT22;7950;42.744;23.174;2023-03-01T08:42:34;6.40;99.90
15700;DHT22;7950;42.744;23.174;2023-03-01T08:45:03;6.40;99.90
15700;DHT22;7950;42.744;23.174;2023-03-01T08:47:33;6.40;99.90
15700;DHT22;7950;42.744;23.174;2023-03-01T08:50:02;6.40;99.90
15700;DHT22;7950;42.744;23.174;2023-03-01T08:52:33;6.40;99.90
15700;DHT22;7950;42.744;23.174;2023-03-01T08:55:02;6.50;99.90
15700;DHT22;7950;42.744;23.174;2023-03-01T08:57:31;6.50;99.90
15700;DHT22;7950;42.744;23.174;2023-03-01T09:00:04;6.60;99.90
15700;DHT22;7950;42.744;23.174;2023-03-01T09:02:36;6.70;99.90
15700;DHT22;7950;42.744;23.174;2023-03-01T09:05:09;6.70;99.90
15700;DHT22;7950;42.744;23.174;2023-03-01T09:07:39;6.70;99.90
15700;DHT22;7950;42.744;23.174;2023-03-01T09:10:09;6.80;99.90
15700;DHT22;7950;42.744;23.174;2023-03-01T09:12:38;6.80;99.90
15700;DHT22;7950;42.744;23.174;2023-03-01T09:15:08;6.80;99.90
15700;DHT22;7950;42.744;23.174;2023-03-01T09:17:37;6.80;99.90
15700;DHT22;7950;42.744;23.174;2023-03-01T09:20:06;6.90;99.90
15700;DHT22;7950;42.744;23.174;2023-03-01T09:22:36;7.00;99.90
15700;DHT22;7950;42.744;23.174;2023-03-01T09:25:06;7.00;99.90
15700;DHT22;7950;42.744;23.174;2023-03-01T09:27:36;7.10;99.90
15700;DHT22;7950;42.744;23.174;2023-03-01T09:30:06;7.10;99.90
15700;DHT22;7950;42.744;23.174;2023-03-01T09:32:35;7.30;99.90
15700;DHT22;7950;42.744;23.174;2023-03-01T09:35:05;7.30;99.90
15700;DHT22;7950;42.744;23.174;2023-03-01T09:37:35;7.30;99.90
15700;DHT22;7950;42.744;23.174;2023-03-01T09:40:09;7.30;99.90
15700;DHT22;7950;42.744;23.174;2023-03-01T09:42:52;7.30;99.90
15700;DHT22;7950;42.744;23.174;2023-03-01T09:45:33;7.30;99.90
15700;DHT22;7950;42.744;23.174;2023-03-01T09:48:09;7.30;99.90
15700;DHT22;7950;42.744;23.174;2023-03-01T09:50:44;7.30;99.90
15700;DHT22;7950;42.744;23.174;2023-03-01T09:53:22;7.30;99.90
15700;DHT22;7950;42.744;23.174;2023-03-01T09:59:25;7.20;99.90
15700;DHT22;7950;42.744;23.174;2023-03-01T10:02:07;7.30;99.90
15700;DHT22;7950;42.744;23.174;2023-03-01T10:04:54;7.30;99.90
15700;DHT22;7950;42.744;23.174;2023-03-01T10:07:39;7.40;99.90
15700;DHT22;7950;42.744;23.174;2023-03-01T10:10:27;7.40;99.90
15700;DHT22;7950;42.744;23.174;2023-03-01T10:13:05;7.40;99.90
15700;DHT22;7950;42.744;23.174;2023-03-01T10:15:47;7.40;99.90
15700;DHT22;7950;42.744;23.174;2023-03-01T10:18:26;7.30;99.90
15700;DHT22;7950;42.744;23.174;2023-03-01T10:20:58;7.30;99.90
15700;DHT22;7950;42.744;23.174;2023-03-01T10:23:59;7.40;99.90
15700;DHT22;7950;42.744;23.174;2023-03-01T10:26:51;7.40;99.90
15700;DHT22;7950;42.744;23.174;2023-03-01T10:29:28;7.40;99.90
15700;DHT22;7950;42.744;23.174;2023-03-01T10:32:03;7.50;99.90
15700;DHT22;7950;42.744;23.174;2023-03-01T10:34:36;7.50;99.90
15700;DHT22;7950;42.744;23.174;2023-03-01T10:37:13;7.40;99.90
15700;DHT22;7950;42.744;23.174;2023-03-01T10:39:56;7.40;99.90
15700;DHT22;7950;42.744;23.174;2023-03-01T10:42:29;7.50;99.90
15700;DHT22;7950;42.744;23.174;2023-03-01T10:45:15;7.50;99.90
15700;DHT22;7950;42.744;23.174;2023-03-01T10:48:04;7.60;99.90
15700;DHT22;7950;42.744;23.174;2023-03-01T10:50:40;7.50;99.90
15700;DHT22;7950;42.744;23.174;2023-03-01T10:53:24;7.60;99.90
15700;DHT22;7950;42.744;23.174;2023-03-01T10:56:01;7.50;99.90
15700;DHT22;7950;42.744;23.174;2023-03-01T10:58:34;7.60;99.90
15700;DHT22;7950;42.744;23.174;2023-03-01T11:01:23;7.50;99.90
15700;DHT22;7950;42.744;23.174;2023-03-01T11:04:10;7.50;99.90
15700;DHT22;7950;42.744;23.174;2023-03-01T11:06:40;7.50;99.90
15700;DHT22;7950;42.744;23.174;2023-03-01T11:09:18;7.50;99.90
15700;DHT22;7950;42.744;23.174;2023-03-01T11:11:52;7.50;99.90
15700;DHT22;7950;42.744;23.174;2023-03-01T11:14:23;7.40;99.90
15700;DHT22;7950;42.744;23.174;2023-03-01T11:17:01;7.50;99.90
15700;DHT22;7950;42.744;23.174;2023-03-01T11:19:32;7.50;99.90
15700;DHT22;7950;42.744;23.174;2023-03-01T11:22:03;7.40;99.90
15700;DHT22;7950;42.744;23.174;2023-03-01T11:24:38;7.40;99.90
15700;DHT22;7950;42.744;23.174;2023-03-01T11:27:21;7.40;99.90
15700;DHT22;7950;42.744;23.174;2023-03-01T11:29:57;7.40;99.90
15700;DHT22;7950;42.744;23.174;2023-03-01T11:32:35;7.50;99.90
15700;DHT22;7950;42.744;23.174;2023-03-01T11:35:15;7.50;99.90
15700;DHT22;7950;42.744;23.174;2023-03-01T11:37:57;7.50;99.90
15700;DHT22;7950;42.744;23.174;2023-03-01T11:40:34;7.50;99.90
15700;DHT22;7950;42.744;23.174;2023-03-01T11:43:14;7.50;99.90
15700;DHT22;7950;42.744;23.174;2023-03-01T11:46:06;7.50;99.90
15700;DHT22;7950;42.744;23.174;2023-03-01T11:49:05;7.60;99.90
15700;DHT22;7950;42.744;23.174;2023-03-01T11:51:53;7.70;99.90
15700;DHT22;7950;42.744;23.174;2023-03-01T11:54:35;7.70;99.90
15700;DHT22;7950;42.744;23.174;2023-03-01T11:57:25;7.70;99.90
15700;DHT22;7950;42.744;23.174;2023-03-01T12:00:36;7.70;99.90
15700;DHT22;7950;42.744;23.174;2023-03-01T12:03:36;7.70;99.90
15700;DHT22;7950;42.744;23.174;2023-03-01T12:06:29;7.70;99.90
15700;DHT22;7950;42.744;23.174;2023-03-01T12:09:17;7.70;99.90
15700;DHT22;7950;42.744;23.174;2023-03-01T12:18:24;7.70;99.90
15700;DHT22;7950;42.744;23.174;2023-03-01T12:21:19;7.70;99.90
15700;DHT22;7950;42.744;23.174;2023-03-01T12:24:40;7.80;99.90
15700;DHT22;7950;42.744;23.174;2023-03-01T12:27:39;7.90;99.90
15700;DHT22;7950;42.744;23.174;2023-03-01T12:30:41;8.00;99.90
15700;DHT22;7950;42.744;23.174;2023-03-01T12:33:30;8.10;99.90
15700;DHT22;7950;42.744;23.174;2023-03-01T12:36:22;8.10;99.90
15700;DHT22;7950;42.744;23.174;2023-03-01T12:39:11;8.20;99.90
15700;DHT22;7950;42.744;23.174;2023-03-01T12:42:01;8.30;99.90
15700;DHT22;7950;42.744;23.174;2023-03-01T12:44:58;8.40;99.90
15700;DHT22;7950;42.744;23.174;2023-03-01T12:48:05;8.50;99.90
15700;DHT22;7950;42.744;23.174;2023-03-01T12:50:47;8.60;99.90
15700;DHT22;7950;42.744;23.174;2023-03-01T12:53:23;8.50;99.90
15700;DHT22;7950;42.744;23.174;2023-03-01T12:55:56;8.50;99.90
15700;DHT22;7950;42.744;23.174;2023-03-01T12:58:32;8.50;99.90
15700;DHT22;7950;42.744;23.174;2023-03-01T13:01:22;8.40;99.90
15700;DHT22;7950;42.744;23.174;2023-03-01T13:07:34;8.50;99.90
15700;DHT22;7950;42.744;23.174;2023-03-01T13:10:19;8.50;99.90
15700;DHT22;7950;42.744;23.174;2023-03-01T13:13:14;8.60;99.90
15700;DHT22;7950;42.744;23.174;2023-03-01T13:15:51;8.50;99.90
15700;DHT22;7950;42.744;23.174;2023-03-01T13:18:33;8.40;99.90
15700;DHT22;7950;42.744;23.174;2023-03-01T13:21:03;8.30;99.90
15700;DHT22;7950;42.744;23.174;2023-03-01T13:23:35;8.20;99.90
15700;DHT22;7950;42.744;23.174;2023-03-01T13:26:09;8.10;99.90
15700;DHT22;7950;42.744;23.174;2023-03-01T13:28:48;8.10;99.90
15700;DHT22;7950;42.744;23.174;2023-03-01T13:35:40;8.00;99.90
15700;DHT22;7950;42.744;23.174;2023-03-01T13:41:48;7.90;99.90
15700;DHT22;7950;42.744;23.174;2023-03-01T13:44:24;8.00;99.90
15700;DHT22;7950;42.744;23.174;2023-03-01T13:46:59;7.90;99.90
15700;DHT22;7950;42.744;23.174;2023-03-01T13:49:44;8.00;99.90
15700;DHT22;7950;42.744;23.174;2023-03-01T13:52:39;8.00;99.90
15700;DHT22;7950;42.744;23.174;2023-03-01T13:55:17;8.10;99.90
15700;DHT22;7950;42.744;23.174;2023-03-01T13:57:50;8.10;99.90
15700;DHT22;7950;42.744;23.174;2023-03-01T14:00:40;8.10;99.90
15700;DHT22;7950;42.744;23.174;2023-03-01T14:03:11;8.10;99.90
15700;DHT22;7950;42.744;23.174;2023-03-01T14:05:43;8.10;99.90
15700;DHT22;7950;42.744;23.174;2023-03-01T14:08:40;8.10;99.90
15700;DHT22;7950;42.744;23.174;2023-03-01T14:11:50;8.10;99.90
15700;DHT22;7950;42.744;23.174;2023-03-01T14:14:48;8.20;99.90
15700;DHT22;7950;42.744;23.174;2023-03-01T14:17:43;8.20;99.90
15700;DHT22;7950;42.744;23.174;2023-03-01T14:20:28;8.30;99.90
15700;DHT22;7950;42.744;23.174;2023-03-01T14:23:01;8.30;99.90
15700;DHT22;7950;42.744;23.174;2023-03-01T14:25:38;8.30;99.90
15700;DHT22;7950;42.744;23.174;2023-03-01T14:28:17;8.20;99.90
15700;DHT22;7950;42.744;23.174;2023-03-01T14:30:49;8.10;99.90
15700;DHT22;7950;42.744;23.174;2023-03-01T14:33:24;8.10;99.90
15700;DHT22;7950;42.744;23.174;2023-03-01T14:35:56;8.00;99.90
15700;DHT22;7950;42.744;23.174;2023-03-01T14:38:32;8.00;99.90
15700;DHT22;7950;42.744;23.174;2023-03-01T14:41:07;7.90;99.90
15700;DHT22;7950;42.744;23.174;2023-03-01T14:43:42;7.90;99.90
15700;DHT22;7950;42.744;23.174;2023-03-01T14:46:19;7.90;99.90
15700;DHT22;7950;42.744;23.174;2023-03-01T14:48:50;7.90;99.90
15700;DHT22;7950;42.744;23.174;2023-03-01T14:51:19;7.80;99.90
15700;DHT22;7950;42.744;23.174;2023-03-01T14:53:49;7.70;99.90
15700;DHT22;7950;42.744;23.174;2023-03-01T14:56:45;7.70;99.90
15700;DHT22;7950;42.744;23.174;2023-03-01T14:59:15;7.60;99.90
15700;DHT22;7950;42.744;23.174;2023-03-01T15:01:43;7.60;99.90
15700;DHT22;7950;42.744;23.174;2023-03-01T15:04:13;7.60;99.90
15700;DHT22;7950;42.744;23.174;2023-03-01T15:06:43;7.60;99.90
15700;DHT22;7950;42.744;23.174;2023-03-01T15:09:14;7.50;99.90
15700;DHT22;7950;42.744;23.174;2023-03-01T15:11:45;7.50;99.90
15700;DHT22;7950;42.744;23.174;2023-03-01T15:14:39;7.40;99.90
15700;DHT22;7950;42.744;23.174;2023-03-01T15:17:28;7.40;99.90
15700;DHT22;7950;42.744;23.174;2023-03-01T15:20:02;7.40;99.90
15700;DHT22;7950;42.744;23.174;2023-03-01T15:22:59;7.30;99.90
15700;DHT22;7950;42.744;23.174;2023-03-01T15:25:30;7.30;99.90
15700;DHT22;7950;42.744;23.174;2023-03-01T15:28:02;7.20;99.90
15700;DHT22;7950;42.744;23.174;2023-03-01T15:30:33;7.20;99.90
15700;DHT22;7950;42.744;23.174;2023-03-01T15:33:28;7.20;99.90
15700;DHT22;7950;42.744;23.174;2023-03-01T15:36:00;7.10;99.90
15700;DHT22;7950;42.744;23.174;2023-03-01T15:38:35;7.10;99.90
15700;DHT22;7950;42.744;23.174;2023-03-01T15:41:23;7.10;99.90
15700;DHT22;7950;42.744;23.174;2023-03-01T15:43:54;7.10;99.90
15700;DHT22;7950;42.744;23.174;2023-03-01T15:46:26;7.00;99.90
15700;DHT22;7950;42.744;23.174;2023-03-01T15:48:58;7.00;99.90
15700;DHT22;7950;42.744;23.174;2023-03-01T15:51:33;7.00;99.90
15700;DHT22;7950;42.744;23.174;2023-03-01T15:54:06;6.90;99.90
15700;DHT22;7950;42.744;23.174;2023-03-01T15:56:47;6.90;99.90
15700;DHT22;7950;42.744;23.174;2023-03-01T15:59:17;6.80;99.90
15700;DHT22;7950;42.744;23.174;2023-03-01T16:01:48;6.80;99.90
15700;DHT22;7950;42.744;23.174;2023-03-01T16:04:18;6.70;99.90
15700;DHT22;7950;42.744;23.174;2023-03-01T16:06:50;6.80;99.90
15700;DHT22;7950;42.744;23.174;2023-03-01T16:09:22;6.70;99.90
15700;DHT22;7950;42.744;23.174;2023-03-01T16:11:53;6.70;99.90
15700;DHT22;7950;42.744;23.174;2023-03-01T16:14:23;6.60;99.90
15700;DHT22;7950;42.744;23.174;2023-03-01T16:16:52;6.60;99.90
15700;DHT22;7950;42.744;23.174;2023-03-01T16:19:20;6.60;99.90
15700;DHT22;7950;42.744;23.174;2023-03-01T16:21:49;6.60;99.90
15700;DHT22;7950;42.744;23.174;2023-03-01T16:24:17;6.50;99.90
15700;DHT22;7950;42.744;23.174;2023-03-01T16:26:46;6.50;99.90
15700;DHT22;7950;42.744;23.174;2023-03-01T16:29:14;6.40;99.90
15700;DHT22;7950;42.744;23.174;2023-03-01T16:31:45;6.40;99.90
15700;DHT22;7950;42.744;23.174;2023-03-01T16:34:15;6.40;99.90
15700;DHT22;7950;42.744;23.174;2023-03-01T16:36:43;6.30;99.90
15700;DHT22;7950;42.744;23.174;2023-03-01T16:39:15;6.30;99.90
15700;DHT22;7950;42.744;23.174;2023-03-01T16:41:44;6.30;99.90
15700;DHT22;7950;42.744;23.174;2023-03-01T16:44:12;6.20;99.90
15700;DHT22;7950;42.744;23.174;2023-03-01T16:46:42;6.20;99.90
15700;DHT22;7950;42.744;23.174;2023-03-01T16:49:12;6.20;99.90
15700;DHT22;7950;42.744;23.174;2023-03-01T16:51:41;6.20;99.90
15700;DHT22;7950;42.744;23.174;2023-03-01T16:54:10;6.20;99.90
15700;DHT22;7950;42.744;23.174;2023-03-01T16:56:43;6.10;99.90